Terminal Aerodrome Forecast
Issued by NWS

Home | Current Version | Previous Version | Text Only | Print | Product List | Glossary On
Versions: 1 2 3 4 5 6 7 8 9 10 11 12 13
691
FTUS42 KGSP 232131 AAA
TAFAND
TAF AMD
KAND 232131Z 2322/2418 22007KT P6SM FEW100
     FM240500 36004KT P6SM SCT050
     FM241500 05008KT P6SM FEW050=

USA.gov is the U.S. government's official web portal to all federal, state and local government web resources and services.